This is the latest recevied weather packets stored in our database for station/object DL1NUX-15. If no packets are shown the sender has not sent any weather packets the latest 10 day(s).
| Time | Temp. | Humidity | Pressure | Rain* | Wind** | Luminosity | Snow |
|---|---|---|---|---|---|---|---|
| 1777716916 | 23.33° C | 37% | 1023.5 hPa | 0 mm | - | 604 W/m² | - |
| 1777715118 | 21.67° C | 40% | 1023.9 hPa | 0 mm | - | 680 W/m² | - |
| 1777711521 | 20° C | 45% | 1024.6 hPa | 0 mm | - | 705 W/m² | - |
| 1777710921 | 19.44° C | 46% | 1024.8 hPa | 0 mm | - | 695 W/m² | - |
| 1777709721 | 19.44° C | 47% | 1024.8 hPa | 0 mm | - | 638 W/m² | - |
| 1777707923 | 18.89° C | 49% | 1025.1 hPa | 0 mm | - | 467 W/m² | - |
| 1777706723 | 16.67° C | 54% | 1025.3 hPa | 0 mm | - | 428 W/m² | - |
| 1777705524 | 15.56° C | 58% | 1025.3 hPa | 0 mm | - | 340 W/m² | - |
| 1777704341 | 15° C | 59% | 1025.4 hPa | 0 mm | - | 282 W/m² | - |
| 1777702542 | 13.33° C | 63% | 1025.4 hPa | 0 mm | - | 191 W/m² | - |
| 1777701943 | 10.56° C | 72% | 1025.5 hPa | 0 mm | - | 149 W/m² | - |
| 1777701343 | 10.56° C | 74% | 1025.5 hPa | 0 mm | - | 162 W/m² | - |
| 1777700744 | 11.11° C | 72% | 1025.4 hPa | 0 mm | - | 141 W/m² | - |
| 1777700145 | 11.67° C | 70% | 1025.3 hPa | 0 mm | - | 122 W/m² | - |
| 1777697146 | 6.67° C | 86% | 1025.4 hPa | 0 mm | - | 28 W/m² | - |
| 1777696546 | 6.67° C | 87% | 1025.4 hPa | 0 mm | - | 25 W/m² | - |
| 1777694133 | 6.11° C | 87% | 1025.4 hPa | 0 mm | - | 2 W/m² | - |
| 1777688137 | 7.22° C | 85% | 1025.7 hPa | 0 mm | - | 0 W/m² | - |
| 1777687537 | 7.78° C | 84% | 1025.7 hPa | 0 mm | - | 0 W/m² | - |
| 1777686338 | 7.78° C | 83% | 1025.7 hPa | 0 mm | - | 0 W/m² | - |
| 1777685139 | 7.78° C | 82% | 1025.8 hPa | 0 mm | - | 0 W/m² | - |
| 1777684539 | 8.33° C | 82% | 1025.9 hPa | 0 mm | - | 0 W/m² | - |
| 1777682741 | 8.89° C | 79% | 1025.9 hPa | 0 mm | - | 0 W/m² | - |
| 1777682140 | 8.89° C | 75% | 1026 hPa | 0 mm | - | 0 W/m² | - |
| 1777681541 | 9.44° C | 74% | 1026 hPa | 0 mm | - | 0 W/m² | - |
* Rain latest hour (hover to see other rain measurements)
** Current wind speed in m/s (hover to see current wind gust speed)